createdAt,value
2022-10-17T00:01:35.165Z,15.70
2022-10-17T00:04:01.761Z,15.80
2022-10-17T00:06:28.381Z,15.70
2022-10-17T00:08:54.871Z,15.70
2022-10-17T00:11:21.391Z,15.70
2022-10-17T00:13:48.048Z,15.70
2022-10-17T00:16:14.607Z,15.70
2022-10-17T00:18:41.127Z,15.60
2022-10-17T00:21:07.704Z,15.60
2022-10-17T00:23:34.240Z,15.60
2022-10-17T00:26:00.816Z,15.60
2022-10-17T00:28:27.416Z,15.70
2022-10-17T00:30:53.994Z,15.70
2022-10-17T00:33:20.646Z,15.80
2022-10-17T00:35:47.158Z,15.80
2022-10-17T00:38:13.714Z,15.80
2022-10-17T00:40:40.338Z,15.80
2022-10-17T00:43:06.872Z,15.80
2022-10-17T00:45:33.370Z,15.90
2022-10-17T00:47:59.911Z,15.90
2022-10-17T00:50:26.428Z,15.90
2022-10-17T00:52:53.015Z,15.90
2022-10-17T00:55:19.583Z,15.90
2022-10-17T00:57:46.829Z,15.80
2022-10-17T01:00:13.375Z,15.80
2022-10-17T01:02:40.056Z,15.90
2022-10-17T01:05:06.699Z,15.90
2022-10-17T01:07:36.480Z,15.90
2022-10-17T01:10:03.987Z,15.90
2022-10-17T01:12:30.806Z,15.90
2022-10-17T01:14:57.612Z,15.90
2022-10-17T01:17:24.179Z,15.90
2022-10-17T01:19:50.718Z,15.80
2022-10-17T01:22:17.239Z,15.80
2022-10-17T01:24:43.843Z,15.80
2022-10-17T01:27:10.378Z,15.80
2022-10-17T01:29:36.928Z,15.80
2022-10-17T01:32:03.502Z,15.80
2022-10-17T01:34:30.064Z,15.80
2022-10-17T01:36:56.794Z,15.80
2022-10-17T01:39:24.996Z,15.80
2022-10-17T01:41:53.559Z,15.80
2022-10-17T01:44:20.078Z,15.90
2022-10-17T01:46:46.662Z,15.90
2022-10-17T01:49:13.227Z,15.90
2022-10-17T01:51:39.809Z,16.00
2022-10-17T01:54:06.400Z,16.00
2022-10-17T01:56:32.937Z,16.00
2022-10-17T01:58:59.439Z,16.00
2022-10-17T02:01:26.019Z,16.00
2022-10-17T02:03:52.718Z,15.90
2022-10-17T02:06:19.380Z,15.90
2022-10-17T02:08:46.078Z,15.90
2022-10-17T02:11:12.604Z,15.90
2022-10-17T02:13:39.130Z,15.90
2022-10-17T02:16:05.665Z,15.90
2022-10-17T02:18:32.229Z,15.90
2022-10-17T02:20:58.749Z,15.90
2022-10-17T02:23:25.251Z,15.90
2022-10-17T02:25:51.788Z,15.90
2022-10-17T02:28:18.357Z,15.90
2022-10-17T02:30:44.888Z,15.90
2022-10-17T02:33:11.410Z,15.90
2022-10-17T02:35:37.901Z,15.90
2022-10-17T02:38:04.474Z,15.90
2022-10-17T02:40:31.692Z,15.90
2022-10-17T02:42:58.242Z,15.80
2022-10-17T02:45:24.957Z,15.80
2022-10-17T02:47:51.659Z,15.80
2022-10-17T02:50:18.337Z,15.80
2022-10-17T02:52:44.890Z,15.80
2022-10-17T02:55:11.490Z,15.80
2022-10-17T02:57:38.017Z,15.80
2022-10-17T03:00:04.578Z,15.80
2022-10-17T03:02:31.318Z,15.80
2022-10-17T03:04:58.125Z,15.80
2022-10-17T03:07:24.662Z,15.80
2022-10-17T03:09:51.183Z,15.80
2022-10-17T03:12:17.668Z,15.70
2022-10-17T03:14:44.205Z,15.80
2022-10-17T03:17:10.760Z,15.70
2022-10-17T03:19:37.344Z,15.80
2022-10-17T03:22:03.845Z,15.70
2022-10-17T03:24:30.398Z,15.70
2022-10-17T03:26:56.968Z,15.70
2022-10-17T03:29:23.508Z,15.70
2022-10-17T03:31:50.062Z,15.70
2022-10-17T03:34:18.631Z,15.60
2022-10-17T03:36:45.114Z,15.70
2022-10-17T03:39:11.676Z,15.60
2022-10-17T03:41:38.209Z,15.60
2022-10-17T03:44:04.766Z,15.60
2022-10-17T03:46:31.303Z,15.60
2022-10-17T03:48:57.816Z,15.60
2022-10-17T03:51:24.366Z,15.60
2022-10-17T03:53:50.858Z,15.70
2022-10-17T03:56:17.558Z,15.70
2022-10-17T03:58:44.525Z,15.60
2022-10-17T04:01:11.176Z,15.60
2022-10-17T04:03:37.884Z,15.60
2022-10-17T04:06:04.450Z,15.60
2022-10-17T04:08:30.971Z,15.60
2022-10-17T04:10:57.636Z,15.60
2022-10-17T04:13:24.167Z,15.60
2022-10-17T04:15:50.667Z,15.60
2022-10-17T04:18:17.210Z,15.70
2022-10-17T04:20:43.750Z,15.70
2022-10-17T04:23:10.263Z,15.60
2022-10-17T04:25:36.904Z,15.70
2022-10-17T04:28:03.457Z,15.70
2022-10-17T04:30:30.100Z,15.70
2022-10-17T04:32:56.680Z,15.70
2022-10-17T04:35:23.199Z,15.80
2022-10-17T04:37:49.708Z,15.80
2022-10-17T04:40:16.269Z,15.80
2022-10-17T04:42:42.824Z,15.80
2022-10-17T04:45:09.380Z,15.80
2022-10-17T04:47:35.908Z,15.80
2022-10-17T04:50:02.479Z,15.80
2022-10-17T04:52:29.087Z,15.90
2022-10-17T04:54:55.808Z,15.90
2022-10-17T04:57:22.463Z,15.90
2022-10-17T04:59:49.057Z,15.90
2022-10-17T05:02:15.608Z,15.90
2022-10-17T05:04:42.157Z,15.90
2022-10-17T05:07:08.639Z,15.90
2022-10-17T05:09:35.266Z,15.90
2022-10-17T05:12:04.291Z,15.90
2022-10-17T05:14:33.353Z,15.90
2022-10-17T05:16:59.873Z,15.80
2022-10-17T05:19:26.438Z,15.80
2022-10-17T05:21:53.074Z,15.80
2022-10-17T05:24:19.818Z,15.80
2022-10-17T05:26:46.353Z,15.80
2022-10-17T05:29:12.898Z,15.80
2022-10-17T05:31:39.390Z,15.80
2022-10-17T05:34:09.023Z,15.80
2022-10-17T05:36:38.202Z,15.80
2022-10-17T05:39:04.759Z,15.90
2022-10-17T05:41:31.282Z,15.80
2022-10-17T05:43:59.455Z,15.80
2022-10-17T05:46:28.352Z,15.80
2022-10-17T05:48:55.576Z,15.80
2022-10-17T05:51:22.368Z,15.80
2022-10-17T05:53:48.916Z,15.80
2022-10-17T05:56:15.509Z,15.80
2022-10-17T05:58:50.427Z,15.80
2022-10-17T06:01:17.839Z,15.80
2022-10-17T06:03:44.550Z,15.80
2022-10-17T06:06:11.297Z,15.90
2022-10-17T06:08:37.821Z,15.90
2022-10-17T06:11:07.546Z,16.00
2022-10-17T06:13:36.640Z,16.00
2022-10-17T06:16:03.244Z,16.00
2022-10-17T06:18:29.732Z,16.00
2022-10-17T06:20:56.274Z,16.10
2022-10-17T06:23:22.935Z,16.10
2022-10-17T06:25:49.929Z,16.10
2022-10-17T06:28:16.635Z,16.10
2022-10-17T06:30:43.263Z,16.10
2022-10-17T06:33:09.806Z,16.10
2022-10-17T06:35:36.381Z,16.10
2022-10-17T06:38:02.956Z,16.10
2022-10-17T06:40:30.198Z,16.20
2022-10-17T06:42:56.745Z,16.20
2022-10-17T06:45:23.305Z,16.30
2022-10-17T06:47:49.858Z,16.30
2022-10-17T06:50:16.390Z,16.30
2022-10-17T06:52:42.893Z,16.30
2022-10-17T06:55:09.390Z,16.40
2022-10-17T06:57:35.923Z,16.40
2022-10-17T07:00:02.555Z,16.40
2022-10-17T07:02:29.173Z,16.40
2022-10-17T07:04:56.587Z,16.50
2022-10-17T07:07:23.144Z,16.50
2022-10-17T07:09:49.664Z,16.50
2022-10-17T07:12:16.193Z,16.50
2022-10-17T07:14:42.726Z,16.60
2022-10-17T07:17:10.437Z,16.60
2022-10-17T07:19:36.933Z,16.70
2022-10-17T07:22:03.482Z,16.60
2022-10-17T07:24:30.107Z,16.70
2022-10-17T07:26:56.650Z,16.70
2022-10-17T07:29:23.132Z,16.70
2022-10-17T07:31:50.188Z,16.70
2022-10-17T07:34:16.719Z,16.80
2022-10-17T07:36:43.350Z,16.80
2022-10-17T07:39:09.938Z,16.90
2022-10-17T07:41:36.488Z,16.90
2022-10-17T07:44:02.992Z,16.90
2022-10-17T07:46:29.535Z,16.90
2022-10-17T07:48:56.221Z,17.00
2022-10-17T07:51:22.968Z,17.00
2022-10-17T07:53:49.541Z,17.00
2022-10-17T07:56:16.113Z,17.10
2022-10-17T07:58:42.675Z,17.20
2022-10-17T08:01:13.895Z,17.20
2022-10-17T08:03:41.880Z,17.30
2022-10-17T08:06:08.372Z,17.30
2022-10-17T08:08:34.867Z,17.40
2022-10-17T08:11:01.412Z,17.40
2022-10-17T08:13:27.979Z,17.40
2022-10-17T08:15:54.515Z,17.30
2022-10-17T08:18:21.137Z,17.30
2022-10-17T08:20:48.576Z,17.30
2022-10-17T08:23:15.089Z,17.40
2022-10-17T08:25:41.635Z,17.40
2022-10-17T08:30:39.641Z,17.40
2022-10-17T08:33:06.188Z,17.40
2022-10-17T08:35:32.737Z,17.40
2022-10-17T08:38:01.564Z,17.50
2022-10-17T08:40:28.072Z,17.50
2022-10-17T08:42:54.562Z,17.60
2022-10-17T08:45:21.063Z,17.60
2022-10-17T08:47:47.619Z,17.70
2022-10-17T08:50:14.165Z,17.80
2022-10-17T08:52:40.731Z,17.90
2022-10-17T08:55:07.429Z,17.90
2022-10-17T08:57:34.013Z,18.00
2022-10-17T09:00:00.568Z,18.00
2022-10-17T09:02:28.137Z,18.10
2022-10-17T09:04:54.753Z,18.20
2022-10-17T09:07:21.272Z,18.20
2022-10-17T09:09:47.768Z,18.20
2022-10-17T09:12:14.364Z,18.10
2022-10-17T09:14:40.941Z,18.10
2022-10-17T09:17:07.455Z,18.20
2022-10-17T09:19:33.994Z,18.30
2022-10-17T09:22:02.953Z,18.40
2022-10-17T09:24:30.292Z,18.60
2022-10-17T09:26:57.811Z,18.70
2022-10-17T09:29:25.502Z,18.80
2022-10-17T09:34:27.582Z,18.80
2022-10-17T09:36:55.133Z,18.80
2022-10-17T09:39:21.978Z,18.70
2022-10-17T09:41:48.460Z,18.70
2022-10-17T09:44:15.089Z,18.70
2022-10-17T09:46:41.631Z,18.80
2022-10-17T09:49:08.910Z,18.70
2022-10-17T09:51:36.045Z,18.80
2022-10-17T09:54:02.626Z,18.80
2022-10-17T09:56:29.136Z,18.90
2022-10-17T09:58:55.672Z,19.00
2022-10-17T10:01:24.111Z,19.00
2022-10-17T10:03:51.160Z,19.00
2022-10-17T10:06:17.741Z,19.10
2022-10-17T10:08:44.244Z,19.10
2022-10-17T10:11:13.779Z,19.20
2022-10-17T10:13:40.591Z,19.20
2022-10-17T10:16:07.560Z,19.40
2022-10-17T10:18:34.623Z,19.50
2022-10-17T10:21:01.111Z,19.60
2022-10-17T10:23:27.624Z,19.80
2022-10-17T10:25:54.297Z,19.80
2022-10-17T10:28:20.998Z,19.90
2022-10-17T10:30:47.486Z,20.00
2022-10-17T10:33:14.003Z,20.10
2022-10-17T10:35:40.783Z,20.00
2022-10-17T10:38:07.294Z,20.10
2022-10-17T10:40:34.988Z,20.00
2022-10-17T10:43:05.437Z,19.90
2022-10-17T10:45:48.821Z,19.90
2022-10-17T10:48:15.804Z,20.00
2022-10-17T10:50:45.299Z,20.00
2022-10-17T10:53:12.069Z,20.10
2022-10-17T10:55:38.551Z,20.10
2022-10-17T10:58:05.060Z,20.20
2022-10-17T11:00:31.954Z,20.40
2022-10-17T11:02:59.317Z,20.50
2022-10-17T11:05:27.806Z,20.50
2022-10-17T11:07:55.993Z,20.60
2022-10-17T11:10:22.633Z,20.70
2022-10-17T11:12:49.142Z,20.70
2022-10-17T11:15:15.794Z,20.70
2022-10-17T11:17:42.280Z,20.60
2022-10-17T11:20:08.794Z,20.60
2022-10-17T11:22:35.768Z,20.50
2022-10-17T11:25:02.522Z,20.40
2022-10-17T11:27:29.344Z,20.40
2022-10-17T11:29:55.883Z,20.40
2022-10-17T11:32:22.952Z,20.30
2022-10-17T11:34:49.433Z,20.30
2022-10-17T11:37:16.194Z,20.30
2022-10-17T11:39:42.880Z,20.20
2022-10-17T11:42:09.419Z,20.30
2022-10-17T11:44:38.911Z,20.30
2022-10-17T11:47:05.557Z,20.30
2022-10-17T11:49:34.255Z,20.30
2022-10-17T11:52:03.740Z,20.30
2022-10-17T11:54:30.341Z,20.30
2022-10-17T11:56:56.844Z,20.30
2022-10-17T11:59:23.491Z,20.30
2022-10-17T12:01:50.052Z,20.30
2022-10-17T12:04:16.582Z,20.20
2022-10-17T12:06:43.105Z,20.20
2022-10-17T12:09:09.636Z,20.20
2022-10-17T12:11:36.238Z,20.20
2022-10-17T12:14:05.917Z,20.20
2022-10-17T12:16:33.032Z,20.20
2022-10-17T12:18:59.638Z,20.20
2022-10-17T12:21:29.727Z,20.20
2022-10-17T12:23:58.642Z,20.20
2022-10-17T12:26:25.318Z,20.10
2022-10-17T12:28:51.909Z,20.10
2022-10-17T12:31:22.997Z,20.10
2022-10-17T12:33:49.484Z,20.10
2022-10-17T12:36:15.982Z,20.10
2022-10-17T12:38:44.185Z,20.20
2022-10-17T12:41:13.277Z,20.10
2022-10-17T12:43:43.962Z,20.10
2022-10-17T12:46:11.223Z,20.10
2022-10-17T12:48:37.725Z,20.10
2022-10-17T12:51:30.762Z,20.10
2022-10-17T12:53:50.912Z,20.10
2022-10-17T12:56:17.434Z,20.00
2022-10-17T12:58:43.967Z,20.00
2022-10-17T13:01:23.775Z,20.20
2022-10-17T13:03:52.507Z,20.20
2022-10-17T13:06:19.034Z,20.20
2022-10-17T13:08:45.588Z,20.20
2022-10-17T13:11:13.368Z,20.30
2022-10-17T13:13:40.280Z,20.20
2022-10-17T13:16:06.821Z,20.20
2022-10-17T13:18:33.329Z,20.20
2022-10-17T13:20:59.886Z,20.20
2022-10-17T13:23:26.580Z,20.20
2022-10-17T13:25:53.134Z,20.30
2022-10-17T13:28:19.620Z,20.20
2022-10-17T13:30:46.265Z,20.30
2022-10-17T13:33:12.731Z,20.30
2022-10-17T13:35:59.438Z,20.30
2022-10-17T13:38:25.804Z,20.30
2022-10-17T13:40:58.011Z,20.40
2022-10-17T13:43:28.395Z,20.50
2022-10-17T13:45:55.029Z,20.60
2022-10-17T13:48:21.586Z,20.80
2022-10-17T13:50:48.239Z,20.90
2022-10-17T13:53:14.758Z,20.90
2022-10-17T13:55:41.394Z,20.90
2022-10-17T13:58:07.943Z,20.90
2022-10-17T14:00:34.511Z,20.80
2022-10-17T14:03:01.066Z,20.60
2022-10-17T14:05:27.944Z,20.50
2022-10-17T14:08:12.820Z,20.50
2022-10-17T14:10:40.201Z,20.40
2022-10-17T14:13:08.062Z,20.40
2022-10-17T14:15:34.626Z,20.30
2022-10-17T14:18:05.399Z,20.30
2022-10-17T14:21:08.276Z,20.20
2022-10-17T14:23:22.973Z,20.20
2022-10-17T14:25:49.810Z,20.10
2022-10-17T14:28:16.875Z,20.10
2022-10-17T14:30:58.839Z,20.10
2022-10-17T14:33:25.381Z,20.00
2022-10-17T14:35:51.897Z,20.00
2022-10-17T14:38:18.465Z,20.00
2022-10-17T14:40:45.013Z,20.00
2022-10-17T14:43:11.502Z,19.90
2022-10-17T14:45:38.042Z,19.90
2022-10-17T14:48:04.568Z,19.90
2022-10-17T14:50:31.745Z,19.90
2022-10-17T14:52:58.309Z,19.90
2022-10-17T14:55:24.982Z,19.90
2022-10-17T14:57:51.543Z,19.90
2022-10-17T15:00:18.355Z,19.90
2022-10-17T15:02:44.913Z,19.90
2022-10-17T15:05:13.386Z,20.00
2022-10-17T15:07:40.187Z,20.00
2022-10-17T15:10:06.752Z,19.90
2022-10-17T15:12:33.269Z,20.00
2022-10-17T15:14:59.839Z,19.90
2022-10-17T15:17:26.364Z,19.90
2022-10-17T15:19:52.892Z,19.90
2022-10-17T15:22:19.519Z,19.90
2022-10-17T15:24:49.166Z,19.80
2022-10-17T15:27:15.835Z,19.80
2022-10-17T15:29:42.388Z,19.80
2022-10-17T15:32:08.965Z,19.70
2022-10-17T15:34:35.537Z,19.70
2022-10-17T15:37:02.099Z,19.60
2022-10-17T15:39:29.405Z,19.60
2022-10-17T15:41:56.640Z,19.60
2022-10-17T15:44:23.565Z,19.60
2022-10-17T15:46:50.388Z,19.50
2022-10-17T15:49:17.210Z,19.50
2022-10-17T15:51:54.385Z,19.50
2022-10-17T15:54:27.101Z,19.50
2022-10-17T15:56:54.706Z,19.50
2022-10-17T15:59:21.379Z,19.40
2022-10-17T16:01:48.712Z,19.40
2022-10-17T16:04:15.812Z,19.40
2022-10-17T16:06:42.585Z,19.30
2022-10-17T16:09:09.164Z,19.40
2022-10-17T16:11:35.810Z,19.30
2022-10-17T16:14:02.302Z,19.30
2022-10-17T16:16:28.961Z,19.30
2022-10-17T16:18:55.809Z,19.30
2022-10-17T16:21:25.944Z,19.30
2022-10-17T16:23:53.167Z,19.20
2022-10-17T16:26:19.989Z,19.20
2022-10-17T16:28:46.611Z,19.20
2022-10-17T16:31:13.173Z,19.10
2022-10-17T16:33:39.712Z,19.10
2022-10-17T16:36:07.222Z,19.10
2022-10-17T16:38:33.734Z,19.00
2022-10-17T16:41:00.292Z,19.00
2022-10-17T16:43:26.897Z,18.90
2022-10-17T16:45:53.410Z,18.80
2022-10-17T16:48:20.002Z,18.80
2022-10-17T16:50:46.544Z,18.70
2022-10-17T16:53:13.067Z,18.60
2022-10-17T16:55:39.676Z,18.60
2022-10-17T16:58:06.292Z,18.60
2022-10-17T17:00:32.855Z,18.60
2022-10-17T17:02:59.467Z,18.60
2022-10-17T17:05:26.066Z,18.50
2022-10-17T17:07:52.669Z,18.50
2022-10-17T17:10:19.269Z,18.40
2022-10-17T17:12:45.831Z,18.40
2022-10-17T17:15:12.424Z,18.30
2022-10-17T17:17:55.262Z,18.30
2022-10-17T17:20:22.449Z,18.20
2022-10-17T17:22:50.746Z,18.10
2022-10-17T17:25:17.298Z,18.00
2022-10-17T17:27:43.839Z,17.90
2022-10-17T17:30:10.393Z,17.90
2022-10-17T17:32:36.966Z,17.90
2022-10-17T17:35:03.490Z,17.90
2022-10-17T17:37:30.220Z,17.90
2022-10-17T17:39:56.920Z,17.90
2022-10-17T17:42:23.468Z,17.80
2022-10-17T17:44:50.105Z,17.70
2022-10-17T17:47:16.734Z,17.70
2022-10-17T17:49:43.253Z,17.70
2022-10-17T17:52:09.740Z,17.60
2022-10-17T17:54:39.994Z,17.50
2022-10-17T17:57:07.736Z,17.40
2022-10-17T17:59:34.303Z,17.40
2022-10-17T18:02:02.680Z,17.30
2022-10-17T18:04:29.263Z,17.30
2022-10-17T18:06:55.758Z,17.30
2022-10-17T18:09:23.528Z,17.30
2022-10-17T18:11:50.048Z,17.30
2022-10-17T18:14:19.015Z,17.20
2022-10-17T18:16:45.676Z,17.20
2022-10-17T18:19:12.200Z,17.10
2022-10-17T18:21:38.866Z,17.10
2022-10-17T18:24:05.370Z,17.10
2022-10-17T18:26:31.842Z,17.10
2022-10-17T18:28:58.364Z,17.00
2022-10-17T18:31:28.219Z,17.00
2022-10-17T18:33:54.806Z,17.00
2022-10-17T18:36:21.345Z,17.10
2022-10-17T18:38:47.852Z,17.00
2022-10-17T18:41:15.386Z,17.00
2022-10-17T18:43:41.938Z,17.00
2022-10-17T18:46:12.322Z,16.90
2022-10-17T18:48:41.297Z,16.90
2022-10-17T18:51:07.826Z,16.90
2022-10-17T18:53:34.315Z,16.90
2022-10-17T18:56:03.140Z,16.90
2022-10-17T18:58:29.855Z,16.80
2022-10-17T19:00:56.356Z,16.80
2022-10-17T19:03:22.861Z,16.80
2022-10-17T19:05:49.399Z,16.80
2022-10-17T19:08:15.922Z,16.80
2022-10-17T19:10:42.574Z,16.70
2022-10-17T19:13:09.126Z,16.70
2022-10-17T19:15:35.648Z,16.70
2022-10-17T19:18:02.197Z,16.70
2022-10-17T19:20:28.719Z,16.70
2022-10-17T19:22:55.327Z,16.70
2022-10-17T19:25:21.837Z,16.70
2022-10-17T19:27:48.333Z,16.70
2022-10-17T19:30:14.877Z,16.70
2022-10-17T19:32:41.445Z,16.60
2022-10-17T19:35:07.966Z,16.50
2022-10-17T19:37:34.467Z,16.50
2022-10-17T19:40:00.978Z,16.50
2022-10-17T19:42:27.516Z,16.50
2022-10-17T19:44:54.085Z,16.60
2022-10-17T19:47:20.727Z,16.50
2022-10-17T19:49:50.035Z,16.50
2022-10-17T19:52:16.759Z,16.50
2022-10-17T19:54:43.284Z,16.50
2022-10-17T19:57:10.615Z,16.40
2022-10-17T19:59:37.308Z,16.40
2022-10-17T20:02:03.950Z,16.30
2022-10-17T20:04:30.649Z,16.40
2022-10-17T20:06:59.762Z,16.30
2022-10-17T20:09:26.387Z,16.20
2022-10-17T20:11:52.919Z,16.30
2022-10-17T20:14:19.411Z,16.30
2022-10-17T20:16:50.031Z,16.30
2022-10-17T20:19:16.534Z,16.30
2022-10-17T20:21:43.053Z,16.30
2022-10-17T20:24:09.643Z,16.30
2022-10-17T20:26:38.557Z,16.30
2022-10-17T20:29:08.545Z,16.30
2022-10-17T20:31:35.277Z,16.30
2022-10-17T20:34:01.802Z,16.20
2022-10-17T20:36:28.667Z,16.20
2022-10-17T20:38:56.653Z,16.30
2022-10-17T20:41:26.717Z,16.30
2022-10-17T20:43:54.505Z,16.30
2022-10-17T20:46:36.345Z,16.30
2022-10-17T20:49:03.801Z,16.30
2022-10-17T20:51:33.652Z,16.30
2022-10-17T20:54:03.758Z,16.30
2022-10-17T20:56:30.651Z,16.20
2022-10-17T20:58:58.101Z,16.20
2022-10-17T21:01:25.432Z,16.20
2022-10-17T21:03:52.016Z,16.20
2022-10-17T21:06:20.660Z,16.20
2022-10-17T21:08:49.181Z,16.20
2022-10-17T21:11:15.697Z,16.20
2022-10-17T21:13:42.666Z,16.20
2022-10-17T21:16:10.949Z,16.10
2022-10-17T21:18:38.668Z,16.10
2022-10-17T21:21:08.688Z,16.10
2022-10-17T21:23:37.734Z,16.10
2022-10-17T21:26:07.124Z,16.10
2022-10-17T21:28:34.825Z,16.10
2022-10-17T21:31:02.632Z,16.10
2022-10-17T21:33:29.869Z,16.00
2022-10-17T21:35:56.640Z,16.00
2022-10-17T21:38:23.470Z,16.00
2022-10-17T21:40:55.302Z,16.00
2022-10-17T21:43:23.165Z,16.00
2022-10-17T21:45:49.669Z,16.00
2022-10-17T21:48:17.339Z,16.00
2022-10-17T21:50:45.679Z,16.00
2022-10-17T21:53:13.130Z,15.90
2022-10-17T21:55:41.680Z,15.90
2022-10-17T21:58:11.202Z,15.90
2022-10-17T22:00:37.829Z,15.90
2022-10-17T22:03:05.786Z,15.90
2022-10-17T22:05:32.372Z,15.90
2022-10-17T22:08:00.250Z,15.90
2022-10-17T22:10:27.745Z,15.80
2022-10-17T22:12:54.795Z,15.80
2022-10-17T22:15:21.789Z,15.80
2022-10-17T22:17:50.649Z,15.80
2022-10-17T22:20:18.734Z,15.80
2022-10-17T22:22:50.691Z,15.80
2022-10-17T22:25:18.065Z,15.70
2022-10-17T22:27:45.017Z,15.70
2022-10-17T22:30:11.938Z,15.70
2022-10-17T22:32:40.448Z,15.70
2022-10-17T22:35:07.244Z,15.70
2022-10-17T22:37:34.701Z,15.70
2022-10-17T22:40:02.162Z,15.80
2022-10-17T22:42:31.753Z,15.80
2022-10-17T22:44:59.503Z,15.80
2022-10-17T22:47:27.424Z,15.80
2022-10-17T22:49:54.619Z,15.80
2022-10-17T22:52:22.844Z,15.70
2022-10-17T22:54:49.381Z,15.70
2022-10-17T22:57:17.706Z,15.70
2022-10-17T22:59:44.288Z,15.70
2022-10-17T23:02:11.208Z,15.70
2022-10-17T23:04:38.156Z,15.80
2022-10-17T23:07:11.915Z,15.70
2022-10-17T23:09:40.711Z,15.70
2022-10-17T23:12:07.930Z,15.70
2022-10-17T23:14:37.428Z,15.70
2022-10-17T23:17:04.110Z,15.70
2022-10-17T23:19:30.925Z,15.80
2022-10-17T23:21:57.613Z,15.70
2022-10-17T23:24:25.068Z,15.70
2022-10-17T23:26:53.720Z,15.70
2022-10-17T23:29:21.560Z,15.70
2022-10-17T23:31:48.423Z,15.70
2022-10-17T23:34:15.110Z,15.70
2022-10-17T23:36:41.641Z,15.70
2022-10-17T23:39:11.064Z,15.70
2022-10-17T23:41:37.665Z,15.70
2022-10-17T23:44:08.642Z,15.70
2022-10-17T23:46:37.573Z,15.60
2022-10-17T23:49:04.043Z,15.70
2022-10-17T23:51:30.531Z,15.70
2022-10-17T23:53:57.853Z,15.60
2022-10-17T23:56:25.283Z,15.60
2022-10-17T23:58:51.825Z,15.60
